Quellon, Chile
Current Conditions -  °F | °C
As of 1:00 PM on Saturday 20 Dec 2014 (Local Time) from SCON Reporting Station
Clear Clear  
Wind Chill: 54°   Ceiling: Unl
Heat Index: 54°   Visibility: 6mi
Dew Point: 41°   Wind: 14mph
Humidity: 62%   Direction: 230°SW
Pressure: 30"   Gusts: NA
Location:  43.14°S, 73.66°W
Report Text: SCON 201700Z AUTO 23012KT CAVOK 12/05 Q1016
Loading
Personal Weather Stations






























Interactive Weather Map New forecast layout! Learn more

10-Day Weather Forecast

Advertisements
Track Severe Weather on mobile